Manns Choice, PA (15550)

2:01 AM EDT on July 06, 2015 (GMT -0400)
Bedford County | | Change Station
CLOSE
Current Station
Airport
Location: Bedford County,
Elevation: 1161 ft
Nearby Weather Stations

Elev 1161 ft 40.08 °N, 78.50 °W | Updated 26 minutes ago

Overcast
Overcast
70 °F
Feels Like 70 °F
N
4
Wind Variable Wind from SE

Today
High -- | Low -- °F
--% Chance of Precip.
Yesterday
High -- | Low -- °F
Precip. -- in
5:52 AM 8:46 PM
Waning Gibbous, 78% visible
Pressure 30.12 in
Visibility 10.0 miles
Clouds Scattered Clouds 2400 ft
Mostly Cloudy 2800 ft
Mostly Cloudy 3500 ft
Dew Point 65 °F
Humidity 85%
Rainfall 0.00 in
Snow Depth Not available.
UV 0 out of 12
Pollen 3.30 out of 12
Air Quality Not available.
Flu Activity Not available.
METAR KHMZ 060535Z AUTO 13003KT 10SM SCT024 BKN028 BKN035 21/19 A3012 RMK AO2 T02120185

More Conditions Fewer Conditions

Pressure 30.12 in
Visibility 10.0 miles
Clouds Scattered Clouds 2400 ft
Mostly Cloudy 2800 ft
Mostly Cloudy 3500 ft
Dew Point 65 °F
Humidity 85%
Rainfall 0.00 in
Snow Depth Not available.
UV 0 out of 12
Pollen 3.30 out of 12
Air Quality Not available.
Flu Activity Not available.
METAR KHMZ 060535Z AUTO 13003KT 10SM SCT024 BKN028 BKN035 21/19 A3012 RMK AO2 T02120185

More Conditions Fewer Conditions

Nowcast | as of 11:56 PM EDT on July 5, 2015

Isolated showers and thunderstorms will be across south central Pennsylvania through 2 am. Most of the activity will be south of Route 22. Some storms will contain brief heavy downpours. The showers and storms are moving north at 20 mph.

×

10-Day Weather Forecast

×

Almanac

Astronomy

Jul. 06, 2015 Rise Set
Actual Time
Civil Twilight
Nautical Twilight
Astronomical Twilight
Moon
Length of Visible Light
Length of Day
Tomorrow will be .
, % of the Moon is Illuminated

Today's Extremes

State Highs State Lows

Community

WunderPhotos

Upload Photos

1,835,491 photos uploaded!

WunderBlogs® & News

Nearby

Air Quality

  Air Quality AQ Index Pollutant
Not available.

Snow Depth

Station Depth Elevation

Earthquake Activity

City Distance Mag. Time & Date
Minimum magnitude displayed is 2.5.

Coastal Water Temperatures

Place Temperature

Stations

Nearby Weather Stations

Station Location Temp. Windchill Dew Point Humidity Wind Precip. Elev Updated Type